Country
Station

 

Weather  for  Bodo Vi  -  Norway    Norway

  
15 °C (59 °F)
    
 
 

Current METAR for Bodo Vi is :

ENBO 202020Z 09020KT 9999 FEW045 SCT100 15/08 Q1003 NOSIG

 

This is a report for Bodo Vi - Norway.
 
The report was made a moment ago, at 20:20 UTC .
The wind was blowing at a speed of 10.3 meters per second (23.0 miles per hour) from east (090°).
 
The temperature was 15 °C (59 °F), with a dew-point at 8 °C (46 °F).
The atmospheric pressure was 1003 hPa (29.62 inHg).
The relative humidity was 62.9%.
 
There were a few clouds at a height of 1372 meters (4500 feet) and scattered clouds at a height of 3048 meters (10000 feet).
 
The overall visibility was greater than 10 kilometers (6.2 miles).
 

 
 
 
 

Country :   A   B   C   D   E   F   G   H   I   J   K   L   M   N   O   P   Q   R   S   T   U   V   W   Y   Z

 

Site Info  |  Disclaimer  |  Credits  |  Privacy
Contact us  |  Add to favorites
© 2013-2019 METARs - All rights reserved